createdAt,value
2018-12-03T00:00:11.940Z,0.00
2018-12-03T00:01:11.938Z,0.00
2018-12-03T00:02:11.918Z,0.00
2018-12-03T00:03:11.920Z,0.00
2018-12-03T00:04:11.917Z,0.00
2018-12-03T00:05:11.930Z,0.00
2018-12-03T00:06:11.909Z,0.00
2018-12-03T00:07:11.934Z,0.00
2018-12-03T00:08:11.899Z,0.00
2018-12-03T00:09:11.900Z,0.00
2018-12-03T00:10:11.893Z,0.00
2018-12-03T00:11:11.881Z,0.00
2018-12-03T00:12:11.888Z,0.00
2018-12-03T00:13:11.911Z,0.00
2018-12-03T00:14:11.907Z,0.00
2018-12-03T00:15:11.870Z,0.00
2018-12-03T00:16:11.860Z,0.00
2018-12-03T00:17:11.861Z,0.00
2018-12-03T00:18:11.848Z,0.00
2018-12-03T00:19:11.866Z,0.00
2018-12-03T00:20:11.861Z,0.00
2018-12-03T00:21:11.862Z,0.00
2018-12-03T00:22:11.848Z,0.00
2018-12-03T00:23:11.849Z,0.00
2018-12-03T00:24:11.827Z,0.00
2018-12-03T00:25:11.899Z,0.00
2018-12-03T00:26:11.867Z,0.00
2018-12-03T00:27:11.831Z,0.00
2018-12-03T00:28:11.809Z,0.00
2018-12-03T00:29:11.816Z,0.00
2018-12-03T00:30:11.813Z,0.00
2018-12-03T00:31:11.811Z,0.00
2018-12-03T00:32:11.822Z,0.00
2018-12-03T00:33:11.806Z,0.00
2018-12-03T00:34:11.808Z,0.00
2018-12-03T00:35:11.801Z,0.00
2018-12-03T00:36:11.873Z,0.00
2018-12-03T00:37:11.780Z,0.00
2018-12-03T00:38:11.804Z,0.00
2018-12-03T00:39:11.810Z,0.00
2018-12-03T00:40:11.836Z,0.00
2018-12-03T00:41:11.807Z,0.00
2018-12-03T00:42:11.800Z,0.00
2018-12-03T00:43:11.764Z,0.00
2018-12-03T00:44:11.763Z,0.00
2018-12-03T00:45:11.821Z,0.00
2018-12-03T00:46:11.761Z,0.00
2018-12-03T00:47:11.762Z,0.00
2018-12-03T00:48:11.824Z,0.00
2018-12-03T00:49:12.728Z,0.00
2018-12-03T00:50:11.744Z,0.00
2018-12-03T00:51:11.768Z,0.00
2018-12-03T00:52:11.727Z,0.00
2018-12-03T00:53:11.736Z,0.00
2018-12-03T00:54:11.718Z,0.00
2018-12-03T00:55:11.723Z,0.00
2018-12-03T00:56:11.763Z,0.00
2018-12-03T00:57:11.727Z,0.00
2018-12-03T00:58:11.765Z,0.00
2018-12-03T00:59:11.716Z,0.00
2018-12-03T01:00:11.764Z,0.00
2018-12-03T01:01:11.746Z,0.00
2018-12-03T01:02:11.704Z,0.00
2018-12-03T01:03:11.760Z,0.00
2018-12-03T01:04:11.739Z,0.00
2018-12-03T01:05:11.686Z,0.00
2018-12-03T01:06:11.690Z,0.00
2018-12-03T01:07:11.708Z,0.00
2018-12-03T01:08:11.763Z,0.00
2018-12-03T01:09:11.673Z,0.00
2018-12-03T01:10:11.661Z,0.00
2018-12-03T01:11:11.645Z,0.00
2018-12-03T01:12:11.635Z,0.00
2018-12-03T01:13:11.699Z,0.00
2018-12-03T01:14:11.718Z,0.00
2018-12-03T01:15:11.635Z,0.00
2018-12-03T01:16:11.664Z,0.00
2018-12-03T01:17:11.658Z,0.00
2018-12-03T01:18:11.612Z,0.00
2018-12-03T01:19:11.620Z,0.00
2018-12-03T01:20:11.661Z,0.00
2018-12-03T01:21:11.645Z,0.00
2018-12-03T01:22:11.637Z,0.00
2018-12-03T01:23:11.626Z,0.00
2018-12-03T01:24:11.609Z,0.00
2018-12-03T01:25:11.606Z,0.00
2018-12-03T01:26:11.589Z,0.00
2018-12-03T01:27:11.680Z,0.00
2018-12-03T01:28:11.637Z,0.00
2018-12-03T01:29:11.755Z,0.00
2018-12-03T01:30:11.607Z,0.00
2018-12-03T01:31:11.625Z,0.00
2018-12-03T01:32:11.621Z,0.00
2018-12-03T01:33:11.593Z,0.00
2018-12-03T01:34:11.564Z,0.00
2018-12-03T01:35:11.546Z,0.00
2018-12-03T01:36:11.573Z,0.00
2018-12-03T01:37:11.562Z,0.00
2018-12-03T01:38:11.530Z,0.00
2018-12-03T01:39:11.532Z,0.00
2018-12-03T01:40:11.536Z,0.00
2018-12-03T01:41:11.538Z,0.00
2018-12-03T01:42:11.539Z,0.00
2018-12-03T01:43:11.513Z,0.00
2018-12-03T01:44:11.508Z,0.00
2018-12-03T01:45:11.513Z,0.00
2018-12-03T01:46:11.511Z,0.00
2018-12-03T01:47:11.512Z,0.00
2018-12-03T01:48:11.500Z,0.00
2018-12-03T01:49:11.526Z,0.00
2018-12-03T01:50:11.518Z,0.00
2018-12-03T01:51:11.501Z,0.00
2018-12-03T01:52:11.479Z,0.00
2018-12-03T01:53:11.491Z,0.00
2018-12-03T01:54:11.489Z,0.00
2018-12-03T01:55:11.489Z,0.00
2018-12-03T01:56:11.492Z,0.00
2018-12-03T01:57:11.480Z,0.00
2018-12-03T01:58:11.524Z,0.00
2018-12-03T01:59:11.490Z,0.00
2018-12-03T02:00:11.470Z,0.00
2018-12-03T02:01:11.457Z,0.00
2018-12-03T02:02:11.435Z,0.00
2018-12-03T02:03:11.464Z,0.00
2018-12-03T02:04:11.450Z,0.00
2018-12-03T02:05:11.431Z,0.00
2018-12-03T02:06:11.430Z,0.00
2018-12-03T02:07:11.565Z,0.00
2018-12-03T02:08:11.447Z,0.00
2018-12-03T02:09:11.441Z,0.00
2018-12-03T02:10:11.441Z,0.00
2018-12-03T02:11:11.407Z,0.00
2018-12-03T02:12:11.393Z,0.00
2018-12-03T02:13:11.408Z,0.00
2018-12-03T02:14:11.402Z,0.00
2018-12-03T02:15:11.415Z,0.00
2018-12-03T02:16:11.398Z,0.00
2018-12-03T02:17:11.388Z,0.00
2018-12-03T02:18:11.373Z,0.00
2018-12-03T02:19:11.378Z,0.00
2018-12-03T02:20:11.389Z,0.00
2018-12-03T02:21:11.369Z,0.00
2018-12-03T02:22:11.377Z,0.00
2018-12-03T02:23:11.360Z,0.00
2018-12-03T02:24:11.398Z,0.00
2018-12-03T02:25:11.348Z,0.00
2018-12-03T02:26:11.373Z,0.00
2018-12-03T02:27:11.353Z,0.00
2018-12-03T02:28:11.338Z,0.00
2018-12-03T02:29:11.355Z,0.00
2018-12-03T02:30:11.334Z,0.00
2018-12-03T02:31:11.336Z,0.00
2018-12-03T02:32:11.330Z,0.00
2018-12-03T02:33:11.310Z,0.00
2018-12-03T02:34:11.318Z,0.00
2018-12-03T02:35:11.349Z,0.00
2018-12-03T02:36:11.382Z,0.00
2018-12-03T02:37:11.300Z,0.00
2018-12-03T02:38:11.303Z,0.00
2018-12-03T02:39:11.293Z,0.00
2018-12-03T02:40:11.316Z,0.00
2018-12-03T02:41:11.278Z,0.00
2018-12-03T02:42:11.296Z,0.00
2018-12-03T02:43:11.298Z,0.00
2018-12-03T02:44:11.269Z,0.00
2018-12-03T02:45:11.295Z,0.00
2018-12-03T02:46:11.268Z,0.00
2018-12-03T02:47:19.419Z,0.00
2018-12-03T02:48:12.689Z,0.00
2018-12-03T02:49:11.266Z,0.00
2018-12-03T02:50:11.417Z,0.00
2018-12-03T02:51:13.710Z,0.00
2018-12-03T02:52:11.395Z,0.00
2018-12-03T02:53:11.256Z,0.00
2018-12-03T02:54:11.234Z,0.00
2018-12-03T02:55:11.351Z,0.00
2018-12-03T02:56:13.733Z,0.00
2018-12-03T02:57:13.751Z,0.00
2018-12-03T02:58:12.791Z,0.00
2018-12-03T02:59:11.226Z,0.00
2018-12-03T03:00:12.924Z,0.00
2018-12-03T03:01:13.181Z,0.00
2018-12-03T03:02:11.323Z,0.00
2018-12-03T03:03:14.162Z,0.00
2018-12-03T03:04:13.937Z,0.00
2018-12-03T03:05:30.151Z,0.00
2018-12-03T03:06:13.510Z,0.00
2018-12-03T03:07:11.207Z,0.00
2018-12-03T03:08:12.742Z,0.00
2018-12-03T03:09:13.405Z,0.00
2018-12-03T03:10:13.268Z,0.00
2018-12-03T03:11:13.711Z,0.00
2018-12-03T03:12:11.202Z,0.00
2018-12-03T03:13:14.012Z,0.00
2018-12-03T03:14:13.270Z,0.00
2018-12-03T03:15:13.966Z,0.00
2018-12-03T03:16:12.753Z,0.00
2018-12-03T03:17:11.278Z,0.00
2018-12-03T03:18:14.156Z,0.00
2018-12-03T03:19:11.158Z,0.00
2018-12-03T03:20:13.781Z,0.00
2018-12-03T03:21:11.143Z,0.00
2018-12-03T03:22:11.194Z,0.00
2018-12-03T03:23:13.908Z,0.00
2018-12-03T03:24:11.232Z,0.00
2018-12-03T03:25:13.808Z,0.00
2018-12-03T03:26:11.122Z,0.00
2018-12-03T03:27:11.115Z,0.00
2018-12-03T03:28:13.147Z,0.00
2018-12-03T03:29:11.932Z,0.00
2018-12-03T03:30:13.713Z,0.00
2018-12-03T03:31:11.967Z,0.00
2018-12-03T03:32:11.228Z,0.00
2018-12-03T03:33:11.254Z,0.00
2018-12-03T03:34:12.167Z,0.00
2018-12-03T03:35:11.363Z,0.00
2018-12-03T03:36:11.161Z,0.00
2018-12-03T03:37:11.120Z,0.00
2018-12-03T03:38:11.092Z,0.00
2018-12-03T03:39:14.398Z,0.00
2018-12-03T03:40:11.091Z,0.00
2018-12-03T03:41:11.649Z,0.00
2018-12-03T03:42:11.071Z,0.00
2018-12-03T03:43:11.045Z,0.00
2018-12-03T03:44:11.117Z,0.00
2018-12-03T03:45:11.088Z,0.00
2018-12-03T03:46:11.096Z,0.00
2018-12-03T03:47:11.934Z,0.00
2018-12-03T03:48:11.052Z,0.00
2018-12-03T03:49:12.733Z,0.00
2018-12-03T03:50:13.197Z,0.00
2018-12-03T03:51:12.817Z,0.00
2018-12-03T03:52:11.057Z,0.00
2018-12-03T03:53:12.740Z,0.00
2018-12-03T03:54:13.038Z,0.00
2018-12-03T03:55:12.710Z,0.00
2018-12-03T03:56:12.159Z,0.00
2018-12-03T03:57:11.126Z,0.00
2018-12-03T03:58:12.747Z,0.00
2018-12-03T03:59:12.684Z,0.00
2018-12-03T04:00:11.021Z,0.00
2018-12-03T04:01:12.745Z,0.00
2018-12-03T04:02:12.752Z,0.00
2018-12-03T04:03:12.742Z,0.00
2018-12-03T04:04:12.736Z,0.00
2018-12-03T04:05:12.734Z,0.00
2018-12-03T04:06:12.744Z,0.00
2018-12-03T04:07:12.692Z,0.00
2018-12-03T04:08:13.203Z,0.00
2018-12-03T04:09:13.672Z,0.00
2018-12-03T04:10:13.200Z,0.00
2018-12-03T04:11:12.775Z,0.00
2018-12-03T04:12:12.541Z,0.00
2018-12-03T04:13:12.721Z,0.00
2018-12-03T04:14:13.244Z,0.00
2018-12-03T04:15:13.255Z,0.00
2018-12-03T04:16:12.205Z,0.00
2018-12-03T04:17:12.959Z,0.00
2018-12-03T04:18:13.249Z,0.00
2018-12-03T04:19:13.164Z,0.00
2018-12-03T04:20:13.210Z,0.00
2018-12-03T04:21:13.154Z,0.00
2018-12-03T04:22:13.264Z,0.00
2018-12-03T04:23:13.242Z,0.00
2018-12-03T04:24:13.277Z,0.00
2018-12-03T04:25:13.266Z,0.00
2018-12-03T04:26:13.247Z,0.00
2018-12-03T04:27:13.206Z,0.00
2018-12-03T04:28:13.153Z,0.00
2018-12-03T04:29:12.575Z,0.00
2018-12-03T04:30:12.893Z,0.00
2018-12-03T04:31:12.945Z,0.00
2018-12-03T04:32:12.826Z,0.00
2018-12-03T04:33:13.140Z,0.00
2018-12-03T04:34:12.847Z,0.00
2018-12-03T04:35:12.897Z,0.00
2018-12-03T04:36:13.295Z,0.00
2018-12-03T04:37:12.862Z,0.00
2018-12-03T04:38:13.235Z,0.00
2018-12-03T04:39:12.893Z,0.00
2018-12-03T04:40:13.289Z,0.00
2018-12-03T04:42:13.234Z,0.00
2018-12-03T04:43:13.234Z,0.00
2018-12-03T04:44:12.881Z,0.00
2018-12-03T04:45:13.235Z,0.00
2018-12-03T04:46:13.283Z,0.00
2018-12-03T04:47:13.163Z,0.00
2018-12-03T04:48:13.310Z,0.00
2018-12-03T04:49:13.238Z,0.00
2018-12-03T04:50:12.903Z,0.00
2018-12-03T04:51:13.183Z,0.00
2018-12-03T04:52:12.819Z,0.00
2018-12-03T04:53:13.142Z,0.00
2018-12-03T04:54:13.306Z,0.00
2018-12-03T04:55:13.252Z,0.00
2018-12-03T04:56:12.829Z,0.00
2018-12-03T04:57:12.879Z,0.00
2018-12-03T04:58:13.217Z,0.00
2018-12-03T04:59:12.881Z,0.00
2018-12-03T05:00:19.359Z,0.00
2018-12-03T05:01:12.690Z,0.00
2018-12-03T05:02:14.463Z,0.00
2018-12-03T05:03:12.760Z,0.00
2018-12-03T05:04:14.785Z,0.00
2018-12-03T05:05:12.500Z,0.00
2018-12-03T05:06:14.727Z,0.00
2018-12-03T05:07:12.975Z,0.00
2018-12-03T05:08:13.384Z,0.00
2018-12-03T05:09:13.404Z,0.00
2018-12-03T05:10:13.505Z,0.00
2018-12-03T05:11:12.452Z,0.00
2018-12-03T05:12:12.679Z,0.00
2018-12-03T05:13:12.472Z,0.00
2018-12-03T05:14:12.490Z,0.00
2018-12-03T05:15:12.492Z,0.00
2018-12-03T05:16:12.512Z,0.00
2018-12-03T05:17:12.368Z,0.00
2018-12-03T05:18:12.818Z,0.00
2018-12-03T05:19:14.798Z,0.00
2018-12-03T05:20:12.423Z,0.00
2018-12-03T05:21:12.977Z,0.00
2018-12-03T05:22:13.310Z,0.00
2018-12-03T05:23:13.223Z,0.00
2018-12-03T05:24:12.591Z,0.00
2018-12-03T05:25:12.708Z,0.00
2018-12-03T05:26:12.609Z,0.00
2018-12-03T05:27:12.626Z,0.00
2018-12-03T05:28:12.676Z,0.00
2018-12-03T05:29:12.727Z,0.00
2018-12-03T05:30:12.964Z,0.00
2018-12-03T05:31:13.693Z,0.00
2018-12-03T05:32:12.658Z,0.00
2018-12-03T05:33:12.667Z,0.00
2018-12-03T05:34:13.177Z,0.00
2018-12-03T05:35:13.448Z,0.00
2018-12-03T05:36:12.202Z,0.00
2018-12-03T05:37:12.541Z,0.00
2018-12-03T05:38:12.634Z,0.00
2018-12-03T05:39:12.455Z,0.00
2018-12-03T05:40:12.518Z,0.00
2018-12-03T05:41:12.563Z,0.00
2018-12-03T05:42:12.558Z,0.00
2018-12-03T05:43:12.645Z,0.00
2018-12-03T05:44:18.497Z,0.00
2018-12-03T05:45:12.487Z,0.00
2018-12-03T05:46:12.559Z,0.00
2018-12-03T05:47:12.228Z,0.00
2018-12-03T05:48:12.694Z,0.00
2018-12-03T05:49:12.444Z,0.00
2018-12-03T05:50:12.642Z,0.00
2018-12-03T05:51:12.574Z,0.00
2018-12-03T05:52:12.618Z,0.00
2018-12-03T05:53:12.568Z,0.00
2018-12-03T05:54:12.623Z,0.00
2018-12-03T05:55:12.528Z,0.00
2018-12-03T05:56:12.458Z,0.00
2018-12-03T05:57:12.484Z,0.00
2018-12-03T05:58:12.426Z,0.00
2018-12-03T05:59:12.624Z,0.00
2018-12-03T06:00:12.517Z,0.00
2018-12-03T06:01:12.537Z,0.00
2018-12-03T06:02:12.571Z,0.00
2018-12-03T06:03:12.537Z,0.00
2018-12-03T06:04:12.488Z,0.00
2018-12-03T06:05:12.501Z,0.00
2018-12-03T06:06:12.508Z,0.00
2018-12-03T06:07:12.552Z,0.00
2018-12-03T06:08:12.448Z,0.00
2018-12-03T06:09:12.564Z,0.00
2018-12-03T06:10:12.507Z,0.00
2018-12-03T06:11:12.627Z,0.00
2018-12-03T06:12:12.408Z,0.00
2018-12-03T06:13:12.763Z,0.00
2018-12-03T06:14:13.108Z,0.00
2018-12-03T06:15:12.065Z,0.00
2018-12-03T06:16:15.239Z,0.00
2018-12-03T06:17:12.236Z,0.00
2018-12-03T06:18:12.565Z,0.00
2018-12-03T06:19:12.608Z,0.00
2018-12-03T06:20:12.804Z,0.00
2018-12-03T06:21:13.257Z,0.00
2018-12-03T06:22:12.734Z,0.00
2018-12-03T06:23:12.521Z,0.00
2018-12-03T06:24:32.573Z,0.00
2018-12-03T06:25:12.355Z,0.00
2018-12-03T06:26:12.444Z,0.00
2018-12-03T06:27:47.896Z,0.00
2018-12-03T06:28:11.272Z,0.00
2018-12-03T06:29:12.753Z,0.00
2018-12-03T06:30:19.196Z,0.00
2018-12-03T06:31:12.697Z,0.00
2018-12-03T06:32:13.041Z,0.00
2018-12-03T06:33:17.819Z,0.00
2018-12-03T06:34:12.747Z,0.00
2018-12-03T06:35:39.509Z,0.00
2018-12-03T06:36:18.881Z,0.00
2018-12-03T06:37:12.657Z,0.00
2018-12-03T06:38:15.475Z,0.00
2018-12-03T06:39:12.295Z,0.00
2018-12-03T06:40:15.754Z,0.00
2018-12-03T06:41:11.772Z,0.00
2018-12-03T06:42:11.811Z,0.00
2018-12-03T06:43:11.497Z,0.00
2018-12-03T06:44:19.771Z,0.00
2018-12-03T06:45:19.260Z,0.00
2018-12-03T06:46:25.323Z,0.00
2018-12-03T06:47:12.416Z,0.00
2018-12-03T06:48:11.775Z,0.00
2018-12-03T06:49:11.486Z,0.00
2018-12-03T06:50:12.438Z,4.00
2018-12-03T06:51:12.731Z,4.00
2018-12-03T06:52:12.231Z,0.00
2018-12-03T06:53:12.220Z,4.00
2018-12-03T06:54:12.420Z,4.00
2018-12-03T06:55:12.191Z,4.00
2018-12-03T06:56:14.320Z,8.00
2018-12-03T06:58:45.716Z,8.00
2018-12-03T06:59:45.815Z,8.00
2018-12-03T07:01:40.348Z,8.00
2018-12-03T07:02:40.519Z,8.00
2018-12-03T07:04:35.270Z,12.00
2018-12-03T07:05:35.200Z,12.00
2018-12-03T07:06:34.832Z,16.00
2018-12-03T07:07:35.258Z,16.00
2018-12-03T07:08:35.093Z,28.00
2018-12-03T07:09:34.521Z,32.00
2018-12-03T07:10:34.805Z,32.00
2018-12-03T07:11:35.523Z,36.00
2018-12-03T07:12:34.809Z,32.00
2018-12-03T07:13:35.225Z,32.00
2018-12-03T07:14:37.722Z,32.00
2018-12-03T07:15:35.155Z,36.00
2018-12-03T07:16:35.226Z,40.00
2018-12-03T07:17:35.162Z,36.00
2018-12-03T07:19:35.151Z,36.00
2018-12-03T07:20:35.729Z,36.00
2018-12-03T07:21:36.024Z,32.00
2018-12-03T07:22:35.191Z,28.00
2018-12-03T07:23:35.727Z,24.00
2018-12-03T07:24:35.225Z,28.00
2018-12-03T07:25:34.572Z,32.00
2018-12-03T07:26:35.130Z,28.00
2018-12-03T07:27:34.910Z,32.00
2018-12-03T07:28:41.054Z,32.00
2018-12-03T07:29:35.278Z,32.00
2018-12-03T07:30:35.673Z,40.00
2018-12-03T07:31:35.231Z,48.00
2018-12-03T07:32:34.370Z,44.00
2018-12-03T07:33:34.879Z,52.00
2018-12-03T07:34:34.909Z,48.00
2018-12-03T07:35:34.930Z,72.00
2018-12-03T07:36:34.861Z,92.00
2018-12-03T07:37:34.908Z,84.00
2018-12-03T07:38:34.898Z,72.00
2018-12-03T07:39:34.454Z,60.00
2018-12-03T07:40:35.041Z,68.00
2018-12-03T07:41:34.882Z,128.00
2018-12-03T07:42:35.096Z,112.00
2018-12-03T07:43:34.953Z,84.00
2018-12-03T07:44:35.184Z,84.00
2018-12-03T07:45:35.372Z,112.00
2018-12-03T07:46:35.193Z,120.00
2018-12-03T07:47:33.910Z,124.00
2018-12-03T07:48:34.555Z,156.00
2018-12-03T07:49:36.250Z,180.00
2018-12-03T07:50:34.356Z,232.00
2018-12-03T07:51:33.993Z,264.00
2018-12-03T07:52:32.989Z,292.00
2018-12-03T07:53:34.327Z,328.00
2018-12-03T07:54:32.901Z,364.00
2018-12-03T07:55:34.370Z,372.00
2018-12-03T07:56:35.222Z,388.00
2018-12-03T07:57:32.768Z,400.00
2018-12-03T07:58:36.185Z,424.00
2018-12-03T07:59:32.776Z,456.00
2018-12-03T08:00:34.753Z,500.00
2018-12-03T08:01:34.351Z,604.00
2018-12-03T08:02:32.874Z,792.00
2018-12-03T08:03:35.557Z,712.00
2018-12-03T08:04:35.234Z,656.00
2018-12-03T08:05:34.718Z,572.00
2018-12-03T08:06:34.298Z,480.00
2018-12-03T08:07:36.282Z,432.00
2018-12-03T08:08:34.372Z,520.00
2018-12-03T08:09:36.968Z,688.00
2018-12-03T08:10:37.657Z,1116.00
2018-12-03T08:11:34.724Z,868.00
2018-12-03T08:12:34.683Z,464.00
2018-12-03T08:13:34.307Z,592.00
2018-12-03T08:14:35.048Z,1300.00
2018-12-03T08:15:32.712Z,1508.00
2018-12-03T08:16:34.307Z,1280.00
2018-12-03T08:17:34.530Z,1384.00
2018-12-03T08:18:33.776Z,1232.00
2018-12-03T08:19:34.734Z,1180.00
2018-12-03T08:20:32.661Z,976.00
2018-12-03T08:21:34.296Z,1052.00
2018-12-03T08:22:34.370Z,1000.00
2018-12-03T08:23:32.678Z,1084.00
2018-12-03T08:24:34.644Z,988.00
2018-12-03T08:25:41.199Z,1044.00
2018-12-03T08:26:34.742Z,1056.00
2018-12-03T08:27:33.879Z,996.00
2018-12-03T08:28:34.285Z,1020.00
2018-12-03T08:29:34.233Z,1076.00
2018-12-03T08:30:34.238Z,1084.00
2018-12-03T08:31:34.261Z,1140.00
2018-12-03T08:32:41.536Z,1180.00
2018-12-03T08:33:35.246Z,1340.00
2018-12-03T08:34:35.588Z,1264.00
2018-12-03T08:35:37.267Z,1444.00
2018-12-03T08:36:34.710Z,1892.00
2018-12-03T08:37:34.631Z,1668.00
2018-12-03T08:38:34.807Z,1240.00
2018-12-03T08:39:33.918Z,1108.00
2018-12-03T08:40:32.660Z,1124.00
2018-12-03T08:41:32.698Z,1156.00
2018-12-03T08:42:34.708Z,1128.00
2018-12-03T08:43:34.314Z,1136.00
2018-12-03T08:44:34.194Z,1164.00
2018-12-03T08:45:32.549Z,1216.00
2018-12-03T08:46:34.242Z,1236.00
2018-12-03T08:47:32.548Z,1240.00
2018-12-03T08:48:32.648Z,1260.00
2018-12-03T08:49:32.546Z,1288.00
2018-12-03T08:50:32.747Z,1316.00
2018-12-03T08:51:32.625Z,1396.00
2018-12-03T08:52:34.877Z,1380.00
2018-12-03T08:53:32.542Z,1456.00
2018-12-03T08:54:32.528Z,1452.00
2018-12-03T08:55:34.617Z,1568.00
2018-12-03T08:56:36.267Z,1728.00
2018-12-03T08:57:34.753Z,1700.00
2018-12-03T08:58:34.738Z,1496.00
2018-12-03T08:59:34.193Z,1804.00
2018-12-03T09:00:35.061Z,1948.00
2018-12-03T09:01:34.485Z,1988.00
2018-12-03T09:02:34.169Z,1888.00
2018-12-03T09:03:32.718Z,2020.00
2018-12-03T09:04:35.097Z,1716.00
2018-12-03T09:05:32.609Z,1872.00
2018-12-03T09:06:34.759Z,2184.00
2018-12-03T09:07:34.743Z,1624.00
2018-12-03T09:08:37.273Z,1872.00
2018-12-03T09:09:33.724Z,1568.00
2018-12-03T09:10:32.574Z,1476.00
2018-12-03T09:11:35.042Z,1368.00
2018-12-03T09:12:34.812Z,2352.00
2018-12-03T09:13:32.474Z,1880.00
2018-12-03T09:14:32.571Z,2368.00
2018-12-03T09:15:34.038Z,2756.00
2018-12-03T09:16:36.605Z,2536.00
2018-12-03T09:17:34.264Z,3276.00
2018-12-03T09:18:33.770Z,3368.00
2018-12-03T09:19:32.525Z,3040.00
2018-12-03T09:20:34.764Z,2460.00
2018-12-03T09:21:34.280Z,2196.00
2018-12-03T09:22:33.892Z,1864.00
2018-12-03T09:23:32.519Z,1712.00
2018-12-03T09:24:35.052Z,1952.00
2018-12-03T09:25:36.011Z,2088.00
2018-12-03T09:26:34.271Z,1860.00
2018-12-03T09:27:34.562Z,1756.00
2018-12-03T09:28:34.764Z,1940.00
2018-12-03T09:29:34.465Z,2016.00
2018-12-03T09:30:34.753Z,1676.00
2018-12-03T09:31:34.763Z,1364.00
2018-12-03T09:32:34.715Z,1468.00
2018-12-03T09:33:57.796Z,1556.00
2018-12-03T09:34:49.348Z,1800.00
2018-12-03T09:35:34.927Z,2380.00
2018-12-03T09:36:33.800Z,2684.00
2018-12-03T09:37:33.781Z,3060.00
2018-12-03T09:38:34.977Z,3096.00
2018-12-03T09:39:49.753Z,3240.00
2018-12-03T09:40:34.041Z,3400.00
2018-12-03T09:41:35.238Z,3744.00
2018-12-03T09:42:35.227Z,3272.00
2018-12-03T09:43:35.258Z,3152.00
2018-12-03T09:44:34.495Z,3476.00
2018-12-03T09:45:34.817Z,3176.00
2018-12-03T09:46:36.262Z,2336.00
2018-12-03T09:47:35.263Z,2640.00
2018-12-03T09:48:36.911Z,2636.00
2018-12-03T09:49:35.275Z,2756.00
2018-12-03T09:50:34.841Z,2820.00
2018-12-03T09:51:34.612Z,2924.00
2018-12-03T09:52:34.418Z,3364.00
2018-12-03T09:53:34.759Z,3016.00
2018-12-03T09:54:38.403Z,3196.00
2018-12-03T09:55:36.763Z,3796.00
2018-12-03T09:56:34.283Z,3376.00
2018-12-03T09:57:36.434Z,3140.00
2018-12-03T09:58:34.346Z,3300.00
2018-12-03T09:59:34.744Z,3336.00
2018-12-03T10:00:34.671Z,3232.00
2018-12-03T10:01:37.046Z,3248.00
2018-12-03T10:02:34.762Z,2944.00
2018-12-03T10:03:34.690Z,3424.00
2018-12-03T10:04:34.732Z,3780.00
2018-12-03T10:05:35.088Z,4276.00
2018-12-03T10:06:34.816Z,4012.00
2018-12-03T10:07:35.016Z,3776.00
2018-12-03T10:08:40.055Z,3752.00
2018-12-03T10:09:33.887Z,4592.00
2018-12-03T10:10:40.635Z,5616.00
2018-12-03T10:11:34.660Z,5808.00
2018-12-03T10:12:34.989Z,6712.00
2018-12-03T10:13:35.059Z,4176.00
2018-12-03T10:14:40.454Z,5332.00
2018-12-03T10:15:36.351Z,5948.00
2018-12-03T10:16:35.217Z,5284.00
2018-12-03T10:17:34.146Z,5112.00
2018-12-03T10:18:36.764Z,3740.00
2018-12-03T10:19:36.765Z,3584.00
2018-12-03T10:20:34.163Z,3172.00
2018-12-03T10:21:34.707Z,3012.00
2018-12-03T10:22:34.730Z,2436.00
2018-12-03T10:23:34.685Z,2628.00
2018-12-03T10:24:34.725Z,2152.00
2018-12-03T10:25:35.293Z,2012.00
2018-12-03T10:26:34.249Z,2388.00
2018-12-03T10:27:34.695Z,3940.00
2018-12-03T10:28:36.479Z,1952.00
2018-12-03T10:29:34.222Z,1696.00
2018-12-03T10:30:34.281Z,1928.00
2018-12-03T10:31:34.452Z,2520.00
2018-12-03T10:32:34.288Z,2748.00
2018-12-03T10:33:34.760Z,2924.00
2018-12-03T10:34:36.276Z,2928.00
2018-12-03T10:35:34.306Z,3420.00
2018-12-03T10:36:36.323Z,4236.00
2018-12-03T10:37:34.374Z,4924.00
2018-12-03T10:38:34.252Z,7376.00
2018-12-03T10:39:34.057Z,8492.00
2018-12-03T10:40:34.802Z,3652.00
2018-12-03T10:41:34.345Z,3216.00
2018-12-03T10:42:34.931Z,3768.00
2018-12-03T10:43:34.742Z,4692.00
2018-12-03T10:44:33.984Z,4220.00
2018-12-03T10:45:34.213Z,4336.00
2018-12-03T10:46:34.802Z,5268.00
2018-12-03T10:47:34.377Z,4008.00
2018-12-03T10:48:36.375Z,5700.00
2018-12-03T10:49:36.360Z,2472.00
2018-12-03T10:50:33.813Z,2172.00
2018-12-03T10:51:34.351Z,1308.00
2018-12-03T10:52:34.569Z,1088.00
2018-12-03T10:53:34.757Z,1092.00
2018-12-03T10:54:34.786Z,1344.00
2018-12-03T10:55:34.779Z,1380.00
2018-12-03T10:56:34.786Z,1276.00
2018-12-03T10:57:34.614Z,1588.00
2018-12-03T10:58:34.493Z,2152.00
2018-12-03T10:59:34.659Z,2996.00
2018-12-03T11:00:34.952Z,2992.00
2018-12-03T11:01:34.010Z,3252.00
2018-12-03T11:02:34.087Z,2776.00
2018-12-03T11:03:35.080Z,3588.00
2018-12-03T11:04:34.052Z,3264.00
2018-12-03T11:05:34.811Z,4264.00
2018-12-03T11:06:34.773Z,6532.00
2018-12-03T11:07:34.755Z,1960.00
2018-12-03T11:08:34.384Z,2172.00
2018-12-03T11:09:36.344Z,2976.00
2018-12-03T11:10:34.332Z,2672.00
2018-12-03T11:11:33.802Z,2076.00
2018-12-03T11:12:34.352Z,2380.00
2018-12-03T11:13:33.787Z,1404.00
2018-12-03T11:14:34.050Z,1316.00
2018-12-03T11:15:33.981Z,2460.00
2018-12-03T11:16:34.773Z,1984.00
2018-12-03T11:17:34.238Z,1968.00
2018-12-03T11:18:34.139Z,1884.00
2018-12-03T11:19:34.421Z,8256.00
2018-12-03T11:20:34.165Z,6016.00
2018-12-03T11:21:34.769Z,20256.00
2018-12-03T11:22:34.303Z,2568.00
2018-12-03T11:23:34.570Z,2596.00
2018-12-03T11:24:34.174Z,8812.00
2018-12-03T11:25:34.793Z,5932.00
2018-12-03T11:26:34.392Z,11832.00
2018-12-03T11:27:34.403Z,4384.00
2018-12-03T11:28:34.354Z,2300.00
2018-12-03T11:29:36.354Z,1460.00
2018-12-03T11:30:34.061Z,1628.00
2018-12-03T11:31:34.685Z,1848.00
2018-12-03T11:32:34.734Z,1444.00
2018-12-03T11:33:34.278Z,2156.00
2018-12-03T11:34:34.091Z,1384.00
2018-12-03T11:35:34.383Z,996.00
2018-12-03T11:36:34.270Z,948.00
2018-12-03T11:37:34.031Z,928.00
2018-12-03T11:38:34.891Z,892.00
2018-12-03T11:39:34.208Z,888.00
2018-12-03T11:40:35.135Z,1256.00
2018-12-03T11:41:34.180Z,2032.00
2018-12-03T11:42:34.121Z,2160.00
2018-12-03T11:43:33.950Z,5304.00
2018-12-03T11:44:34.222Z,6268.00
2018-12-03T11:45:34.088Z,5876.00
2018-12-03T11:46:33.939Z,14708.00
2018-12-03T11:47:34.328Z,9220.00
2018-12-03T11:48:34.223Z,5060.00
2018-12-03T11:49:34.283Z,6532.00
2018-12-03T11:50:34.772Z,4704.00
2018-12-03T11:51:33.859Z,6000.00
2018-12-03T11:52:34.735Z,2380.00
2018-12-03T11:53:34.179Z,1464.00
2018-12-03T11:54:34.342Z,1228.00
2018-12-03T11:55:34.277Z,1112.00
2018-12-03T11:56:34.320Z,1160.00
2018-12-03T11:57:34.843Z,1328.00
2018-12-03T11:58:34.409Z,1780.00
2018-12-03T11:59:32.064Z,1324.00
2018-12-03T12:00:34.831Z,1540.00
2018-12-03T12:01:34.277Z,1704.00
2018-12-03T12:02:34.381Z,2160.00
2018-12-03T12:03:33.615Z,1984.00
2018-12-03T12:04:40.556Z,1504.00
2018-12-03T12:05:34.580Z,1740.00
2018-12-03T12:06:34.259Z,2232.00
2018-12-03T12:07:34.129Z,3260.00
2018-12-03T12:08:34.523Z,4976.00
2018-12-03T12:09:34.250Z,26368.00
2018-12-03T12:10:34.759Z,14568.00
2018-12-03T12:11:33.989Z,4804.00
2018-12-03T12:12:34.733Z,2492.00
2018-12-03T12:13:34.274Z,2144.00
2018-12-03T12:14:34.108Z,1796.00
2018-12-03T12:15:34.082Z,1844.00
2018-12-03T12:16:33.447Z,1704.00
2018-12-03T12:17:34.404Z,5216.00
2018-12-03T12:18:34.232Z,3096.00
2018-12-03T12:19:34.263Z,4408.00
2018-12-03T12:20:39.968Z,2264.00
2018-12-03T12:21:33.986Z,3156.00
2018-12-03T12:22:33.721Z,12616.00
2018-12-03T12:23:33.738Z,11392.00
2018-12-03T12:24:33.881Z,3576.00
2018-12-03T12:25:35.753Z,4092.00
2018-12-03T12:26:36.131Z,2588.00
2018-12-03T12:27:35.839Z,2624.00
2018-12-03T12:28:38.048Z,2884.00
2018-12-03T12:29:39.921Z,3228.00
2018-12-03T12:30:33.661Z,4220.00
2018-12-03T12:31:33.507Z,3712.00
2018-12-03T12:32:33.657Z,7564.00
2018-12-03T12:33:33.743Z,11880.00
2018-12-03T12:34:33.728Z,6816.00
2018-12-03T12:35:33.676Z,4088.00
2018-12-03T12:36:33.870Z,3408.00
2018-12-03T12:37:33.637Z,2976.00
2018-12-03T12:38:34.016Z,2672.00
2018-12-03T12:39:35.819Z,2844.00
2018-12-03T12:40:33.621Z,4408.00
2018-12-03T12:41:35.778Z,2888.00
2018-12-03T12:42:39.909Z,3372.00
2018-12-03T12:43:33.795Z,3092.00
2018-12-03T12:44:33.805Z,5120.00
2018-12-03T12:45:34.010Z,5400.00
2018-12-03T12:46:33.714Z,4740.00
2018-12-03T12:47:33.701Z,3996.00
2018-12-03T12:48:33.647Z,3428.00
2018-12-03T12:49:33.668Z,2744.00
2018-12-03T12:50:33.700Z,2308.00
2018-12-03T12:51:33.707Z,2108.00
2018-12-03T12:52:33.687Z,1780.00